Wrangell, AK

2:57 PM AKDT on August 30, 2016 (GMT -0800)
Wrangell | | Change Station

Elev 43 ft 56.48 °N, 132.37 °W | Updated 1 minute ago

Mostly Cloudy
Mostly Cloudy
61 °F
Feels Like 61 °F
N
5
Wind Variable Wind from NW

Today
High -- | Low -- °F
--% Chance of Precip.
Yesterday
High -- | Low -- °F
Precip. -- in
Pressure 29.90 in
Visibility 10.0 miles
Clouds Few 4000 ft
Mostly Cloudy 6500 ft
Mostly Cloudy 10000 ft
Dew Point 52 °F
Humidity 72%
Rainfall 0.10 in
Snow Depth Not available.
5:50 AM 7:48 PM
Waning Crescent, 2% visible
METAR PAWG 302256Z 31004KT 10SM FEW040 BKN065 BKN100 16/11 A2990 RMK AO1 WEA:NONE BS
Pressure 29.90 in
Visibility 10.0 miles
Clouds Few 4000 ft
Mostly Cloudy 6500 ft
Mostly Cloudy 10000 ft
Dew Point 52 °F
Humidity 72%
Rainfall 0.10 in
Snow Depth Not available.
5:50 AM 7:48 PM
Waning Crescent, 2% visible
METAR PAWG 302256Z 31004KT 10SM FEW040 BKN065 BKN100 16/11 A2990 RMK AO1 WEA:NONE BS

10-Day Weather Forecast

Almanac

Astronomy

Aug. 30, 2016 Rise Set
Actual Time
Civil Twilight
Nautical Twilight
Astronomical Twilight
Moon
Length of Visible Light
Length of Day
Tomorrow will be .
, % of the Moon is Illuminated

Today's Extremes

State Highs State Lows

Community

WunderPhotos

Upload Photos

1,935,917 photos uploaded!

WunderBlog® & News

Nearby

Air Quality

  Air Quality AQ Index Pollutant
Not available.

Snow Depth

Station Depth Elevation

Earthquake Activity

City Distance Mag. Time & Date
Minimum magnitude displayed is 2.5.

Coastal Water Temperatures

Place Temperature

Stations

Nearby Weather Stations

Station Location Temp. Windchill Dew Point Humidity Wind Precip. Elev Updated Type
                   

Watches & Warnings

There are currently no watches in effect.